Puerto Plata (MDPP) /

Below you can find information about the airport!


Puerto Plata (MDPP)

Suggested Departure Runway:

08

Suggested Landing Runway:

08
MDPP 221600Z 09012KT 9999 SCT022 31/25 Q1017
Online Controllers
No controllers online at Puerto Plata!

Data Retrieved at 13:18 GMT
Departures and Arrivals











No aircraft flying to Puerto Plata!.
Data Retrieved at 13:18 GMT
Airport Charts
Airport Diagram
View
Sectional Chart
View
ASIV1C, KODI1C, POKE1C, RETA1C, SEKA1C, RNAV Departures (RWY 08)
View
ASIV1F, KODI1F, POKE1F, RETA1F, SEKA1F, RNAV Departures (RWY 26)
View
POKIL1 Departure (RWY 08)
View
Runway 08 RNAV Arrivals
View
Runway 26 RNAV Arrivals
View
RNAV Runway 08
View
RNAV Runway 26
View
VOR DME Runway 26
View
VOR Runway 26
View
Information
Puerto Plata is the fourth largest airport in the Dominican Republic. The airport is located near the Northern coast, thus it is very popular with charter airlines from the Americas, and Europe.

Standard Instrument Departures




SID Point 08 26 Initial Climb
ASIVO ASIVO1C ASIVO1F 4000ft
KODIX KODIX1C KODIX1F 4000ft
POKEG POKEG1C POKEG1F 4000ft
RETAK RETAK1C RETAK1F 4000ft
SEKAR SEKAR1C SEKAR1F 4000ft
POKIL1 Airway Departure Airway Departure D25 PTA above airway MNM ALT

Standard Terminal Arrival Routes




STAR Point 08 26
RETAK RETAK1S RETAK1T
SEKAR SEKAR1S SEKAR1T
BESAS BESAS1S BESAS1T
RIBES RIBES1S RIBES1T
BEPAL BEPAL1S BEPAL1T


Downloads
Type
File Name
Download

We are working on some documents!